This is the latest recevied weather packets stored in our database for station/object EA5GTE-12. If no packets are shown the sender has not sent any weather packets the latest 10 day(s).
| Time | Temp. | Humidity | Pressure | Rain* | Wind** | Luminosity | Snow |
|---|---|---|---|---|---|---|---|
| 1787918004 | 25.56° C | 31% | 943.3 hPa | - | - | - | - |
| 1787917104 | 25° C | 33% | 943.2 hPa | - | - | - | - |
| 1787916204 | 25.56° C | 33% | 943.3 hPa | - | - | - | - |
| 1787915304 | 24.44° C | 36% | 943.4 hPa | - | - | - | - |
| 1787914404 | 22.22° C | 42% | 943.8 hPa | - | - | - | - |
| 1787913502 | 25.56° C | 34% | 943.8 hPa | - | - | - | - |
| 1787911705 | 25.56° C | 35% | 944 hPa | - | - | - | - |
| 1787910804 | 25° C | 36% | 944.2 hPa | - | - | - | - |
| 1787909904 | 21.11° C | 47% | 944.2 hPa | - | - | - | - |
| 1787909004 | 21.67° C | 46% | 944.2 hPa | - | - | - | - |
| 1787908104 | 21.11° C | 48% | 944.1 hPa | - | - | - | - |
| 1787907204 | 19.44° C | 55% | 944.2 hPa | - | - | - | - |
| 1787906304 | 20° C | 52% | 944 hPa | - | - | - | - |
| 1787905404 | 20.56° C | 50% | 944 hPa | - | - | - | - |
| 1787904504 | 19.44° C | 58% | 944.2 hPa | - | - | - | - |
| 1787903604 | 17.22° C | 66% | 944.1 hPa | - | - | - | - |
| 1787902704 | 17.22° C | 64% | 943.9 hPa | - | - | - | - |
| 1787901804 | 17.22° C | 66% | 943.8 hPa | - | - | - | - |
| 1787900904 | 16.67° C | 71% | 943.6 hPa | - | - | - | - |
| 1787900003 | 16.11° C | 79% | 943.6 hPa | - | - | - | - |
| 1787899103 | 15.56° C | 83% | 943.6 hPa | - | - | - | - |
| 1787898203 | 15° C | 87% | 943.3 hPa | - | - | - | - |
| 1787897303 | 14.44° C | 90% | 943.3 hPa | - | - | - | - |
| 1787896403 | 14.44° C | 90% | 943 hPa | - | - | - | - |
| 1787895503 | 14.44° C | 91% | 942.8 hPa | - | - | - | - |
* Rain since midnight (hover to see other rain measurements)
** Current wind speed in m/s (hover to see current wind gust speed)